Burin, Canada
Current Conditions -  °F | °C
As of 6:00 PM on Friday 24 Oct 2014 (Local Time) from LFVP Reporting Station
Drizzle Drizzle  
Wind Chill: 54°   Ceiling: 300
Heat Index: 54°   Visibility: 0.93mi
Dew Point: 52°   Wind: 21mph
Humidity: 94%   Direction: 80°E
Pressure: 29.59"   Gusts: NA
Location:  47.05°N, 55.16°W
Report Text: LFVP 242000Z 08018KT 1500 -DZ BR OVC003 12/11 Q1002 NOSIG
Loading
Personal Weather Stations






























Interactive Weather Map
Tropical Storm Tracking
New forecast layout! Learn more

10-Day Weather Forecast

Advertisements
Track Severe Weather on mobile